sensor_id;sensor_type;location;lat;lon;timestamp;pressure;altitude;pressure_sealevel;temperature;humidity
71145;BME280;58812;47.698;17.726;2024-01-30T00:01:51;102370.16;;;-1.44;100.00
71145;BME280;58812;47.698;17.726;2024-01-30T00:04:16;102374.53;;;-1.42;100.00
71145;BME280;58812;47.698;17.726;2024-01-30T00:06:42;102372.69;;;-1.37;100.00
71145;BME280;58812;47.698;17.726;2024-01-30T00:09:08;102377.06;;;-1.37;100.00
71145;BME280;58812;47.698;17.726;2024-01-30T00:11:34;102383.16;;;-1.33;100.00
71145;BME280;58812;47.698;17.726;2024-01-30T00:13:59;102373.53;;;-1.33;100.00
71145;BME280;58812;47.698;17.726;2024-01-30T00:16:25;102366.56;;;-1.36;100.00
71145;BME280;58812;47.698;17.726;2024-01-30T00:18:51;102367.41;;;-1.33;100.00
71145;BME280;58812;47.698;17.726;2024-01-30T00:21:17;102375.25;;;-1.32;100.00
71145;BME280;58812;47.698;17.726;2024-01-30T00:23:43;102379.63;;;-1.31;100.00
71145;BME280;58812;47.698;17.726;2024-01-30T00:26:08;102377.84;;;-1.27;100.00
71145;BME280;58812;47.698;17.726;2024-01-30T00:28:34;102373.50;;;-1.30;100.00
71145;BME280;58812;47.698;17.726;2024-01-30T00:30:59;102378.75;;;-1.31;100.00
71145;BME280;58812;47.698;17.726;2024-01-30T00:33:24;102376.94;;;-1.26;100.00
71145;BME280;58812;47.698;17.726;2024-01-30T00:35:50;102372.59;;;-1.27;100.00
71145;BME280;58812;47.698;17.726;2024-01-30T00:38:15;102372.66;;;-1.33;100.00
71145;BME280;58812;47.698;17.726;2024-01-30T00:40:41;102366.53;;;-1.34;100.00
71145;BME280;58812;47.698;17.726;2024-01-30T00:43:06;102374.44;;;-1.36;100.00
71145;BME280;58812;47.698;17.726;2024-01-30T00:45:32;102373.56;;;-1.38;100.00
71145;BME280;58812;47.698;17.726;2024-01-30T00:47:57;102377.94;;;-1.37;100.00
71145;BME280;58812;47.698;17.726;2024-01-30T00:50:22;102372.75;;;-1.40;100.00
71145;BME280;58812;47.698;17.726;2024-01-30T00:52:48;102369.28;;;-1.45;100.00
71145;BME280;58812;47.698;17.726;2024-01-30T00:55:13;102373.72;;;-1.47;100.00
71145;BME280;58812;47.698;17.726;2024-01-30T00:57:39;102372.87;;;-1.52;100.00
71145;BME280;58812;47.698;17.726;2024-01-30T01:00:07;102365.00;;;-1.52;100.00
71145;BME280;58812;47.698;17.726;2024-01-30T01:02:34;102358.97;;;-1.60;100.00
71145;BME280;58812;47.698;17.726;2024-01-30T01:05:00;102365.16;;;-1.64;100.00
71145;BME280;58812;47.698;17.726;2024-01-30T01:07:25;102362.53;;;-1.67;100.00
71145;BME280;58812;47.698;17.726;2024-01-30T01:09:50;102360.81;;;-1.68;100.00
71145;BME280;58812;47.698;17.726;2024-01-30T01:12:16;102348.56;;;-1.69;100.00
71145;BME280;58812;47.698;17.726;2024-01-30T01:14:41;102357.34;;;-1.70;100.00
71145;BME280;58812;47.698;17.726;2024-01-30T01:17:07;102360.84;;;-1.71;100.00
71145;BME280;58812;47.698;17.726;2024-01-30T01:19:32;102356.56;;;-1.80;100.00
71145;BME280;58812;47.698;17.726;2024-01-30T01:21:58;102354.91;;;-1.90;100.00
71145;BME280;58812;47.698;17.726;2024-01-30T01:24:23;102356.66;;;-1.87;100.00
71145;BME280;58812;47.698;17.726;2024-01-30T01:26:49;102358.44;;;-1.90;100.00
71145;BME280;58812;47.698;17.726;2024-01-30T01:29:15;102349.72;;;-1.93;100.00
71145;BME280;58812;47.698;17.726;2024-01-30T01:31:41;102343.66;;;-2.00;100.00
71145;BME280;58812;47.698;17.726;2024-01-30T01:34:12;102345.44;;;-2.05;100.00
71145;BME280;58812;47.698;17.726;2024-01-30T01:36:39;102348.97;;;-2.06;100.00
71145;BME280;58812;47.698;17.726;2024-01-30T01:39:04;102355.97;;;-2.08;100.00
71145;BME280;58812;47.698;17.726;2024-01-30T01:41:33;102358.56;;;-2.05;100.00
71145;BME280;58812;47.698;17.726;2024-01-30T01:43:59;102351.66;;;-2.12;100.00
71145;BME280;58812;47.698;17.726;2024-01-30T01:46:30;102355.19;;;-2.16;100.00
71145;BME280;58812;47.698;17.726;2024-01-30T01:48:56;102361.34;;;-2.19;100.00
71145;BME280;58812;47.698;17.726;2024-01-30T01:51:23;102350.84;;;-2.20;100.00
71145;BME280;58812;47.698;17.726;2024-01-30T01:53:50;102359.56;;;-2.17;100.00
71145;BME280;58812;47.698;17.726;2024-01-30T01:56:16;102359.53;;;-2.15;100.00
71145;BME280;58812;47.698;17.726;2024-01-30T01:58:41;102354.25;;;-2.13;100.00
71145;BME280;58812;47.698;17.726;2024-01-30T02:01:09;102353.38;;;-2.11;100.00
71145;BME280;58812;47.698;17.726;2024-01-30T02:03:34;102349.09;;;-2.18;100.00
71145;BME280;58812;47.698;17.726;2024-01-30T02:06:01;102355.28;;;-2.25;100.00
71145;BME280;58812;47.698;17.726;2024-01-30T02:08:27;102345.75;;;-2.35;100.00
71145;BME280;58812;47.698;17.726;2024-01-30T02:10:53;102340.59;;;-2.48;100.00
71145;BME280;58812;47.698;17.726;2024-01-30T02:13:21;102338.84;;;-2.46;100.00
71145;BME280;58812;47.698;17.726;2024-01-30T02:15:50;102337.09;;;-2.47;100.00
71145;BME280;58812;47.698;17.726;2024-01-30T02:18:16;102333.59;;;-2.46;100.00
71145;BME280;58812;47.698;17.726;2024-01-30T02:20:41;102325.72;;;-2.43;100.00
71145;BME280;58812;47.698;17.726;2024-01-30T02:23:07;102319.56;;;-2.42;100.00
71145;BME280;58812;47.698;17.726;2024-01-30T02:25:38;102325.72;;;-2.43;100.00
71145;BME280;58812;47.698;17.726;2024-01-30T02:28:04;102323.91;;;-2.39;100.00
71145;BME280;58812;47.698;17.726;2024-01-30T02:30:29;102321.25;;;-2.37;100.00
71145;BME280;58812;47.698;17.726;2024-01-30T02:32:55;102332.66;;;-2.37;100.00
71145;BME280;58812;47.698;17.726;2024-01-30T02:35:20;102325.59;;;-2.33;100.00
71145;BME280;58812;47.698;17.726;2024-01-30T02:37:45;102326.44;;;-2.31;100.00
71145;BME280;58812;47.698;17.726;2024-01-30T02:40:11;102329.97;;;-2.34;100.00
71145;BME280;58812;47.698;17.726;2024-01-30T02:42:36;102331.75;;;-2.37;100.00
71145;BME280;58812;47.698;17.726;2024-01-30T02:45:02;102333.53;;;-2.39;100.00
71145;BME280;58812;47.698;17.726;2024-01-30T02:47:27;102335.31;;;-2.42;100.00
71145;BME280;58812;47.698;17.726;2024-01-30T02:49:52;102330.06;;;-2.42;100.00
71145;BME280;58812;47.698;17.726;2024-01-30T02:52:18;102326.56;;;-2.40;100.00
71145;BME280;58812;47.698;17.726;2024-01-30T02:54:44;102331.75;;;-2.34;100.00
71145;BME280;58812;47.698;17.726;2024-01-30T02:57:09;102327.34;;;-2.31;100.00
71145;BME280;58812;47.698;17.726;2024-01-30T02:59:35;102328.28;;;-2.39;100.00
71145;BME280;58812;47.698;17.726;2024-01-30T03:02:01;102324.87;;;-2.48;100.00
71145;BME280;58812;47.698;17.726;2024-01-30T03:04:26;102326.66;;;-2.53;100.00
71145;BME280;58812;47.698;17.726;2024-01-30T03:06:52;102320.53;;;-2.53;100.00
71145;BME280;58812;47.698;17.726;2024-01-30T03:09:18;102323.12;;;-2.50;100.00
71145;BME280;58812;47.698;17.726;2024-01-30T03:11:43;102330.97;;;-2.46;100.00
71145;BME280;58812;47.698;17.726;2024-01-30T03:14:09;102317.78;;;-2.36;100.00
71145;BME280;58812;47.698;17.726;2024-01-30T03:16:37;102321.22;;;-2.31;100.00
71145;BME280;58812;47.698;17.726;2024-01-30T03:19:03;102316.84;;;-2.29;100.00
71145;BME280;58812;47.698;17.726;2024-01-30T03:21:29;102308.91;;;-2.26;100.00
71145;BME280;58812;47.698;17.726;2024-01-30T03:23:54;102315.91;;;-2.24;100.00
71145;BME280;58812;47.698;17.726;2024-01-30T03:26:19;102305.44;;;-2.27;100.00
71145;BME280;58812;47.698;17.726;2024-01-30T03:28:45;102314.09;;;-2.17;100.00
71145;BME280;58812;47.698;17.726;2024-01-30T03:31:14;102321.06;;;-2.16;100.00
71145;BME280;58812;47.698;17.726;2024-01-30T03:33:39;102321.06;;;-2.16;100.00
71145;BME280;58812;47.698;17.726;2024-01-30T03:36:05;102321.97;;;-2.17;100.00
71145;BME280;58812;47.698;17.726;2024-01-30T03:38:31;102321.09;;;-2.18;100.00
71145;BME280;58812;47.698;17.726;2024-01-30T03:40:58;102317.59;;;-2.18;100.00
71145;BME280;58812;47.698;17.726;2024-01-30T03:43:24;102324.59;;;-2.20;100.00
71145;BME280;58812;47.698;17.726;2024-01-30T03:45:49;102327.22;;;-2.17;100.00
71145;BME280;58812;47.698;17.726;2024-01-30T03:48:15;102327.19;;;-2.16;100.00
71145;BME280;58812;47.698;17.726;2024-01-30T03:50:40;102320.28;;;-2.24;100.00
71145;BME280;58812;47.698;17.726;2024-01-30T03:53:05;102322.03;;;-2.25;100.00
71145;BME280;58812;47.698;17.726;2024-01-30T03:55:31;102326.44;;;-2.31;100.00
71145;BME280;58812;47.698;17.726;2024-01-30T03:57:56;102316.84;;;-2.32;100.00
71145;BME280;58812;47.698;17.726;2024-01-30T04:00:22;102323.88;;;-2.34;100.00
71145;BME280;58812;47.698;17.726;2024-01-30T04:02:47;102323.03;;;-2.36;100.00
71145;BME280;58812;47.698;17.726;2024-01-30T04:05:13;102330.06;;;-2.45;100.00
71145;BME280;58812;47.698;17.726;2024-01-30T04:07:38;102324.91;;;-2.52;100.00
71145;BME280;58812;47.698;17.726;2024-01-30T04:10:04;102322.34;;;-2.58;100.00
71145;BME280;58812;47.698;17.726;2024-01-30T04:12:31;102326.72;;;-2.62;100.00
71145;BME280;58812;47.698;17.726;2024-01-30T04:14:56;102321.53;;;-2.65;100.00
71145;BME280;58812;47.698;17.726;2024-01-30T04:17:22;102325.00;;;-2.63;100.00
71145;BME280;58812;47.698;17.726;2024-01-30T04:19:47;102321.47;;;-2.62;100.00
71145;BME280;58812;47.698;17.726;2024-01-30T04:22:13;102318.06;;;-2.72;100.00
71145;BME280;58812;47.698;17.726;2024-01-30T04:24:38;102316.28;;;-2.68;100.00
71145;BME280;58812;47.698;17.726;2024-01-30T04:27:04;102315.41;;;-2.69;100.00
71145;BME280;58812;47.698;17.726;2024-01-30T04:29:29;102319.78;;;-2.69;100.00
71145;BME280;58812;47.698;17.726;2024-01-30T04:31:54;102325.00;;;-2.63;100.00
71145;BME280;58812;47.698;17.726;2024-01-30T04:34:20;102322.31;;;-2.57;100.00
71145;BME280;58812;47.698;17.726;2024-01-30T04:36:45;102326.62;;;-2.48;100.00
71145;BME280;58812;47.698;17.726;2024-01-30T04:39:11;102323.94;;;-2.42;100.00
71145;BME280;58812;47.698;17.726;2024-01-30T04:41:37;102319.50;;;-2.34;100.00
71145;BME280;58812;47.698;17.726;2024-01-30T04:44:03;102322.91;;;-2.24;100.00
71145;BME280;58812;47.698;17.726;2024-01-30T04:46:29;102324.59;;;-2.20;100.00
71145;BME280;58812;47.698;17.726;2024-01-30T04:48:54;102328.03;;;-2.12;100.00
71145;BME280;58812;47.698;17.726;2024-01-30T04:51:19;102331.50;;;-2.10;100.00
71145;BME280;58812;47.698;17.726;2024-01-30T04:53:45;102332.34;;;-2.06;100.00
71145;BME280;58812;47.698;17.726;2024-01-30T04:56:10;102332.34;;;-2.06;100.00
71145;BME280;58812;47.698;17.726;2024-01-30T04:58:36;102333.22;;;-2.06;100.00
71145;BME280;58812;47.698;17.726;2024-01-30T05:01:02;102339.34;;;-2.05;100.00
71145;BME280;58812;47.698;17.726;2024-01-30T05:03:27;102336.72;;;-2.08;100.00
71145;BME280;58812;47.698;17.726;2024-01-30T05:05:53;102332.34;;;-2.06;100.00
71145;BME280;58812;47.698;17.726;2024-01-30T05:08:18;102321.91;;;-2.11;100.00
71145;BME280;58812;47.698;17.726;2024-01-30T05:10:43;102328.91;;;-2.11;100.00
71145;BME280;58812;47.698;17.726;2024-01-30T05:13:09;102327.16;;;-2.11;100.00
71145;BME280;58812;47.698;17.726;2024-01-30T05:15:35;102328.03;;;-2.12;100.00
71145;BME280;58812;47.698;17.726;2024-01-30T05:18:01;102334.19;;;-2.13;100.00
71145;BME280;58812;47.698;17.726;2024-01-30T05:20:26;102335.03;;;-2.11;100.00
71145;BME280;58812;47.698;17.726;2024-01-30T05:22:55;102335.03;;;-2.12;100.00
71145;BME280;58812;47.698;17.726;2024-01-30T05:25:20;102335.03;;;-2.12;100.00
71145;BME280;58812;47.698;17.726;2024-01-30T05:27:46;102335.03;;;-2.14;100.00
71145;BME280;58812;47.698;17.726;2024-01-30T05:30:11;102340.28;;;-2.12;100.00
71145;BME280;58812;47.698;17.726;2024-01-30T05:32:37;102342.03;;;-2.11;100.00
71145;BME280;58812;47.698;17.726;2024-01-30T05:35:02;102342.88;;;-2.11;100.00
71145;BME280;58812;47.698;17.726;2024-01-30T05:37:28;102342.00;;;-2.07;100.00
71145;BME280;58812;47.698;17.726;2024-01-30T05:39:53;102344.59;;;-2.08;100.00
71145;BME280;58812;47.698;17.726;2024-01-30T05:42:19;102347.25;;;-2.07;100.00
71145;BME280;58812;47.698;17.726;2024-01-30T05:44:44;102341.97;;;-2.08;100.00
71145;BME280;58812;47.698;17.726;2024-01-30T05:47:09;102350.75;;;-2.09;100.00
71145;BME280;58812;47.698;17.726;2024-01-30T05:49:35;102340.28;;;-2.11;100.00
71145;BME280;58812;47.698;17.726;2024-01-30T05:52:02;102335.03;;;-2.12;100.00
71145;BME280;58812;47.698;17.726;2024-01-30T05:54:28;102340.28;;;-2.14;100.00
71145;BME280;58812;47.698;17.726;2024-01-30T05:56:53;102338.53;;;-2.15;100.00
71145;BME280;58812;47.698;17.726;2024-01-30T05:59:19;102335.03;;;-2.14;100.00
71145;BME280;58812;47.698;17.726;2024-01-30T06:01:47;102342.94;;;-2.16;100.00
71145;BME280;58812;47.698;17.726;2024-01-30T06:04:13;102337.72;;;-2.17;100.00
71145;BME280;58812;47.698;17.726;2024-01-30T06:06:39;102342.06;;;-2.16;100.00
71145;BME280;58812;47.698;17.726;2024-01-30T06:09:05;102342.00;;;-2.10;100.00
71145;BME280;58812;47.698;17.726;2024-01-30T06:11:30;102335.00;;;-2.09;100.00
71145;BME280;58812;47.698;17.726;2024-01-30T06:13:56;102339.38;;;-2.10;100.00
71145;BME280;58812;47.698;17.726;2024-01-30T06:16:21;102343.75;;;-2.09;100.00
71145;BME280;58812;47.698;17.726;2024-01-30T06:18:48;102340.22;;;-2.08;100.00
71145;BME280;58812;47.698;17.726;2024-01-30T06:21:13;102347.25;;;-2.07;100.00
71145;BME280;58812;47.698;17.726;2024-01-30T06:23:39;102348.97;;;-2.06;100.00
71145;BME280;58812;47.698;17.726;2024-01-30T06:26:06;102343.72;;;-2.06;100.00
71145;BME280;58812;47.698;17.726;2024-01-30T06:28:31;102354.19;;;-2.04;100.00
71145;BME280;58812;47.698;17.726;2024-01-30T06:30:57;102355.94;;;-2.05;100.00
71145;BME280;58812;47.698;17.726;2024-01-30T06:33:22;102356.84;;;-2.06;100.00
71145;BME280;58812;47.698;17.726;2024-01-30T06:35:48;102355.94;;;-2.05;100.00
71145;BME280;58812;47.698;17.726;2024-01-30T06:38:13;102350.72;;;-2.06;100.00
71145;BME280;58812;47.698;17.726;2024-01-30T06:40:41;102352.44;;;-2.04;100.00
71145;BME280;58812;47.698;17.726;2024-01-30T06:43:06;102354.12;;;-1.95;100.00
71145;BME280;58812;47.698;17.726;2024-01-30T06:45:33;102351.47;;;-1.97;100.00
71145;BME280;58812;47.698;17.726;2024-01-30T06:47:59;102362.84;;;-1.95;100.00
71145;BME280;58812;47.698;17.726;2024-01-30T06:50:25;102361.06;;;-1.93;100.00
71145;BME280;58812;47.698;17.726;2024-01-30T06:52:51;102368.03;;;-1.89;100.00
71145;BME280;58812;47.698;17.726;2024-01-30T06:55:16;102368.03;;;-1.89;100.00
71145;BME280;58812;47.698;17.726;2024-01-30T06:57:41;102367.12;;;-1.86;100.00
71145;BME280;58812;47.698;17.726;2024-01-30T07:00:07;102367.97;;;-1.82;100.00
71145;BME280;58812;47.698;17.726;2024-01-30T07:02:33;102367.03;;;-1.77;100.00
71145;BME280;58812;47.698;17.726;2024-01-30T07:04:58;102376.53;;;-1.65;100.00
71145;BME280;58812;47.698;17.726;2024-01-30T07:07:24;102380.00;;;-1.62;100.00
71145;BME280;58812;47.698;17.726;2024-01-30T07:09:49;102376.44;;;-1.56;100.00
71145;BME280;58812;47.698;17.726;2024-01-30T07:12:18;102366.75;;;-1.52;100.00
71145;BME280;58812;47.698;17.726;2024-01-30T07:14:43;102367.56;;;-1.46;100.00
71145;BME280;58812;47.698;17.726;2024-01-30T07:17:08;102371.88;;;-1.40;100.00
71145;BME280;58812;47.698;17.726;2024-01-30T07:19:34;102378.78;;;-1.33;100.00
71145;BME280;58812;47.698;17.726;2024-01-30T07:22:00;102374.31;;;-1.26;100.00
71145;BME280;58812;47.698;17.726;2024-01-30T07:24:26;102380.38;;;-1.21;100.00
71145;BME280;58812;47.698;17.726;2024-01-30T07:26:52;102375.06;;;-1.17;100.00
71145;BME280;58812;47.698;17.726;2024-01-30T07:29:18;102374.12;;;-1.11;100.00
71145;BME280;58812;47.698;17.726;2024-01-30T07:31:43;102384.56;;;-1.05;100.00
71145;BME280;58812;47.698;17.726;2024-01-30T07:34:09;102373.91;;;-0.96;100.00
71145;BME280;58812;47.698;17.726;2024-01-30T07:36:34;102376.44;;;-0.90;100.00
71145;BME280;58812;47.698;17.726;2024-01-30T07:38:59;102378.97;;;-0.84;100.00
71145;BME280;58812;47.698;17.726;2024-01-30T07:41:25;102379.78;;;-0.77;100.00
71145;BME280;58812;47.698;17.726;2024-01-30T07:43:50;102381.50;;;-0.74;100.00
71145;BME280;58812;47.698;17.726;2024-01-30T07:46:16;102376.97;;;-0.66;100.00
71145;BME280;58812;47.698;17.726;2024-01-30T07:48:41;102376.88;;;-0.60;100.00
71145;BME280;58812;47.698;17.726;2024-01-30T07:51:07;102378.56;;;-0.53;100.00
71145;BME280;58812;47.698;17.726;2024-01-30T07:53:32;102377.59;;;-0.47;100.00
71145;BME280;58812;47.698;17.726;2024-01-30T07:55:58;102379.22;;;-0.42;100.00
71145;BME280;58812;47.698;17.726;2024-01-30T07:58:23;102381.81;;;-0.39;100.00
71145;BME280;58812;47.698;17.726;2024-01-30T08:00:49;102385.28;;;-0.35;100.00
71145;BME280;58812;47.698;17.726;2024-01-30T08:03:14;102380.78;;;-0.29;100.00
71145;BME280;58812;47.698;17.726;2024-01-30T08:05:41;102378.94;;;-0.25;100.00
71145;BME280;58812;47.698;17.726;2024-01-30T08:08:07;102381.59;;;-0.23;100.00
71145;BME280;58812;47.698;17.726;2024-01-30T08:10:32;102384.09;;;-0.19;100.00
71145;BME280;58812;47.698;17.726;2024-01-30T08:12:58;102384.00;;;-0.13;100.00
71145;BME280;58812;47.698;17.726;2024-01-30T08:15:24;102382.13;;;-0.06;100.00
71145;BME280;58812;47.698;17.726;2024-01-30T08:17:49;102382.87;;;0.02;100.00
71145;BME280;58812;47.698;17.726;2024-01-30T08:20:14;102390.72;;;0.07;100.00
71145;BME280;58812;47.698;17.726;2024-01-30T08:22:40;102386.25;;;0.10;100.00
71145;BME280;58812;47.698;17.726;2024-01-30T08:25:06;102398.44;;;0.16;100.00
71145;BME280;58812;47.698;17.726;2024-01-30T08:27:32;102393.91;;;0.22;100.00
71145;BME280;58812;47.698;17.726;2024-01-30T08:29:57;102388.53;;;0.30;100.00
71145;BME280;58812;47.698;17.726;2024-01-30T08:32:23;102397.97;;;0.42;100.00
71145;BME280;58812;47.698;17.726;2024-01-30T08:34:49;102399.63;;;0.46;100.00
71145;BME280;58812;47.698;17.726;2024-01-30T08:37:14;102392.44;;;0.54;100.00
71145;BME280;58812;47.698;17.726;2024-01-30T08:39:42;102396.63;;;0.64;100.00
71145;BME280;58812;47.698;17.726;2024-01-30T08:42:08;102392.78;;;0.80;100.00
71145;BME280;58812;47.698;17.726;2024-01-30T08:44:33;102393.56;;;0.86;100.00
71145;BME280;58812;47.698;17.726;2024-01-30T08:46:58;102395.97;;;0.96;100.00
71145;BME280;58812;47.698;17.726;2024-01-30T08:49:24;102393.09;;;1.05;100.00
71145;BME280;58812;47.698;17.726;2024-01-30T08:51:49;102386.84;;;1.11;100.00
71145;BME280;58812;47.698;17.726;2024-01-30T08:54:15;102382.19;;;1.22;100.00
71145;BME280;58812;47.698;17.726;2024-01-30T08:56:41;102385.53;;;1.30;100.00
71145;BME280;58812;47.698;17.726;2024-01-30T08:59:06;102393.16;;;1.43;100.00
71145;BME280;58812;47.698;17.726;2024-01-30T09:01:31;102380.84;;;1.42;100.00
71145;BME280;58812;47.698;17.726;2024-01-30T09:03:57;102386.63;;;1.57;100.00
71145;BME280;58812;47.698;17.726;2024-01-30T09:06:22;102393.91;;;1.85;100.00
71145;BME280;58812;47.698;17.726;2024-01-30T09:08:49;102391.09;;;1.90;100.00
71145;BME280;58812;47.698;17.726;2024-01-30T09:11:15;102391.06;;;1.93;100.00
71145;BME280;58812;47.698;17.726;2024-01-30T09:13:41;102386.78;;;1.87;100.00
71145;BME280;58812;47.698;17.726;2024-01-30T09:16:07;102391.81;;;2.30;100.00
71145;BME280;58812;47.698;17.726;2024-01-30T09:18:32;102392.50;;;2.37;100.00
71145;BME280;58812;47.698;17.726;2024-01-30T09:20:58;102390.81;;;2.67;100.00
71145;BME280;58812;47.698;17.726;2024-01-30T09:23:24;102389.97;;;2.94;99.93
71145;BME280;58812;47.698;17.726;2024-01-30T09:25:50;102388.06;;;3.29;98.50
71145;BME280;58812;47.698;17.726;2024-01-30T09:28:16;102390.84;;;3.79;95.49
71145;BME280;58812;47.698;17.726;2024-01-30T09:30:42;102389.16;;;4.03;93.07
71145;BME280;58812;47.698;17.726;2024-01-30T09:33:07;102397.50;;;4.42;92.37
71145;BME280;58812;47.698;17.726;2024-01-30T09:35:33;102397.88;;;4.80;90.27
71145;BME280;58812;47.698;17.726;2024-01-30T09:37:58;102386.91;;;5.13;88.73
71145;BME280;58812;47.698;17.726;2024-01-30T09:40:25;102389.22;;;5.44;84.58
71145;BME280;58812;47.698;17.726;2024-01-30T09:42:51;102389.47;;;5.59;82.07
71145;BME280;58812;47.698;17.726;2024-01-30T09:45:19;102388.19;;;5.90;82.52
71145;BME280;58812;47.698;17.726;2024-01-30T09:47:46;102390.31;;;6.04;82.18
71145;BME280;58812;47.698;17.726;2024-01-30T09:50:15;102390.66;;;6.37;78.91
71145;BME280;58812;47.698;17.726;2024-01-30T09:52:40;102388.34;;;6.87;76.97
71145;BME280;58812;47.698;17.726;2024-01-30T09:55:08;102387.88;;;7.17;76.40
71145;BME280;58812;47.698;17.726;2024-01-30T09:57:35;102385.94;;;7.57;74.75
71145;BME280;58812;47.698;17.726;2024-01-30T10:00:01;102384.19;;;7.38;71.31
71145;BME280;58812;47.698;17.726;2024-01-30T10:02:27;102378.81;;;7.57;73.51
71145;BME280;58812;47.698;17.726;2024-01-30T10:04:52;102370.44;;;7.65;73.01
71145;BME280;58812;47.698;17.726;2024-01-30T10:07:18;102380.88;;;7.69;69.47
71145;BME280;58812;47.698;17.726;2024-01-30T10:09:45;102381.12;;;7.46;70.83
71145;BME280;58812;47.698;17.726;2024-01-30T10:12:11;102369.91;;;7.93;69.10
71145;BME280;58812;47.698;17.726;2024-01-30T10:14:40;102375.56;;;7.87;68.47
71145;BME280;58812;47.698;17.726;2024-01-30T10:17:08;102368.38;;;7.89;68.84
71145;BME280;58812;47.698;17.726;2024-01-30T10:19:33;102368.81;;;7.97;69.04
71145;BME280;58812;47.698;17.726;2024-01-30T10:22:03;102369.34;;;8.55;67.33
71145;BME280;58812;47.698;17.726;2024-01-30T10:24:29;102370.88;;;8.44;67.41
71145;BME280;58812;47.698;17.726;2024-01-30T10:26:55;102362.28;;;8.54;67.63
71145;BME280;58812;47.698;17.726;2024-01-30T10:29:20;102363.03;;;8.74;65.45
71145;BME280;58812;47.698;17.726;2024-01-30T10:31:46;102359.97;;;8.14;66.63
71145;BME280;58812;47.698;17.726;2024-01-30T10:34:12;102350.12;;;8.32;66.57
71145;BME280;58812;47.698;17.726;2024-01-30T10:36:43;102359.09;;;8.48;66.97
71145;BME280;58812;47.698;17.726;2024-01-30T10:39:13;102359.53;;;8.56;65.71
71145;BME280;58812;47.698;17.726;2024-01-30T10:41:44;102353.69;;;8.65;65.87
71145;BME280;58812;47.698;17.726;2024-01-30T10:44:11;102351.97;;;8.64;65.01
71145;BME280;58812;47.698;17.726;2024-01-30T10:46:38;102351.47;;;8.73;64.63
71145;BME280;58812;47.698;17.726;2024-01-30T10:49:05;102346.56;;;8.81;63.71
71145;BME280;58812;47.698;17.726;2024-01-30T10:51:32;102337.56;;;9.31;63.76
71145;BME280;58812;47.698;17.726;2024-01-30T10:53:57;102339.97;;;9.20;62.39
71145;BME280;58812;47.698;17.726;2024-01-30T10:56:24;102338.59;;;9.13;61.45
71145;BME280;58812;47.698;17.726;2024-01-30T10:58:53;102338.00;;;9.54;61.46
71145;BME280;58812;47.698;17.726;2024-01-30T11:01:20;102330.59;;;9.13;61.25
71145;BME280;58812;47.698;17.726;2024-01-30T11:03:49;102328.56;;;9.01;62.78
71145;BME280;58812;47.698;17.726;2024-01-30T11:06:16;102328.94;;;9.10;61.71
71145;BME280;58812;47.698;17.726;2024-01-30T11:08:44;102327.63;;;9.79;60.28
71145;BME280;58812;47.698;17.726;2024-01-30T11:11:10;102323.91;;;9.36;59.52
71145;BME280;58812;47.698;17.726;2024-01-30T11:13:36;102326.22;;;9.72;59.10
71145;BME280;58812;47.698;17.726;2024-01-30T11:16:02;102318.56;;;9.66;58.18
71145;BME280;58812;47.698;17.726;2024-01-30T11:18:33;102323.47;;;10.18;57.82
71145;BME280;58812;47.698;17.726;2024-01-30T11:21:00;102314.34;;;10.36;57.39
71145;BME280;58812;47.698;17.726;2024-01-30T11:23:27;102307.87;;;10.26;56.81
71145;BME280;58812;47.698;17.726;2024-01-30T11:25:54;102304.34;;;10.95;56.68
71145;BME280;58812;47.698;17.726;2024-01-30T11:28:21;102292.69;;;9.97;56.65
71145;BME280;58812;47.698;17.726;2024-01-30T11:30:47;102292.84;;;9.79;58.13
71145;BME280;58812;47.698;17.726;2024-01-30T11:33:14;102285.41;;;9.99;57.62
71145;BME280;58812;47.698;17.726;2024-01-30T11:35:43;102285.31;;;9.86;57.49
71145;BME280;58812;47.698;17.726;2024-01-30T11:38:10;102280.00;;;9.70;58.90
71145;BME280;58812;47.698;17.726;2024-01-30T11:40:38;102281.69;;;9.87;58.32
71145;BME280;58812;47.698;17.726;2024-01-30T11:43:05;102271.25;;;9.82;58.54
71145;BME280;58812;47.698;17.726;2024-01-30T11:45:31;102274.63;;;9.56;56.90
71145;BME280;58812;47.698;17.726;2024-01-30T11:47:58;102266.00;;;9.95;57.08
71145;BME280;58812;47.698;17.726;2024-01-30T11:50:25;102262.16;;;9.41;57.97
71145;BME280;58812;47.698;17.726;2024-01-30T11:52:51;102270.81;;;9.60;57.13
71145;BME280;58812;47.698;17.726;2024-01-30T11:55:17;102272.03;;;10.13;56.21
71145;BME280;58812;47.698;17.726;2024-01-30T11:57:43;102259.19;;;9.75;55.72
71145;BME280;58812;47.698;17.726;2024-01-30T12:00:15;102257.69;;;9.85;56.57
71145;BME280;58812;47.698;17.726;2024-01-30T12:02:42;102253.31;;;9.99;56.33
71145;BME280;58812;47.698;17.726;2024-01-30T12:05:08;102248.97;;;10.26;54.86
71145;BME280;58812;47.698;17.726;2024-01-30T12:07:37;102244.28;;;10.44;54.65
71145;BME280;58812;47.698;17.726;2024-01-30T12:10:03;102242.72;;;10.54;54.85
71145;BME280;58812;47.698;17.726;2024-01-30T12:12:29;102236.66;;;10.08;55.39
71145;BME280;58812;47.698;17.726;2024-01-30T12:14:55;102228.69;;;10.51;54.77
71145;BME280;58812;47.698;17.726;2024-01-30T12:17:29;102218.44;;;10.43;55.22
71145;BME280;58812;47.698;17.726;2024-01-30T12:20:07;102227.91;;;10.20;55.34
71145;BME280;58812;47.698;17.726;2024-01-30T12:22:40;102219.50;;;10.40;54.64
71145;BME280;58812;47.698;17.726;2024-01-30T12:25:10;102218.69;;;9.67;55.68
71145;BME280;58812;47.698;17.726;2024-01-30T12:27:37;102223.50;;;9.90;55.45
71145;BME280;58812;47.698;17.726;2024-01-30T12:30:10;102217.28;;;10.18;54.83